KOKK/OKK METAR and TAF weather

Enter ICAO airport designator
Station Type Date Time Source
KOKK METAR 2020/10/22 03:53 UTC NOAA

KOKK 220353Z AUTO 09007KT 7SM OVC014 12/12 A3017 RMK AO2 LTG DSNT NW RAE13B43E53 P0001 401610100


Station Type Date Time Source
KOKK Decoded METAR 2020/10/22 03:53 UTC NOAA

Kokomo, Kokomo Municipal Airport, IN, United States (KOKK) 40-32N 086-04W
Oct 21, 2020 - 11:53 PM EDT / 2020.10.22 0353 UTC
Wind: from the E (090 degrees) at 8 MPH (7 KT):0
Visibility: 7 mile(s):0
Sky conditions: overcast
Weather: Lightning observed
Precipitation last hour: 0.01 inches
Temperature: 53 F (12 C)
Dew Point: 53 F (12 C)
Relative Humidity: 100%
Pressure (altimeter): 30.17 in. Hg (1021 hPa)
ob: KOKK 220353Z AUTO 09007KT 7SM OVC014 12/12 A3017 RMK AO2 LTG DSNT NW RAE13B43E53 P0001 401610100
cycle: 4

Station Type Date Time Source
KOKK TAF UTC NOAA

Error!

Example: see airport list